createdAt,value
2019-01-26T00:02:06.957Z,186.37
2019-01-26T00:04:37.271Z,182.27
2019-01-26T00:07:07.957Z,190.87
2019-01-26T00:09:37.889Z,184.30
2019-01-26T00:12:08.349Z,199.07
2019-01-26T00:14:38.316Z,170.47
2019-01-26T00:17:08.625Z,175.07
2019-01-26T00:19:40.526Z,182.20
2019-01-26T00:22:10.828Z,193.57
2019-01-26T00:24:40.980Z,179.47
2019-01-26T00:27:13.799Z,185.10
2019-01-26T00:29:43.748Z,194.73
2019-01-26T00:32:14.029Z,180.83
2019-01-26T00:34:44.944Z,196.93
2019-01-26T00:37:15.112Z,175.27
2019-01-26T00:39:45.251Z,188.50
2019-01-26T00:42:15.347Z,177.87
2019-01-26T00:44:45.572Z,183.13
2019-01-26T00:47:15.783Z,177.30
2019-01-26T00:49:45.805Z,173.43
2019-01-26T00:52:15.853Z,171.10
2019-01-26T00:54:45.882Z,163.20
2019-01-26T00:57:16.112Z,175.40
2019-01-26T00:59:46.209Z,177.80
2019-01-26T01:02:17.551Z,186.60
2019-01-26T01:04:47.584Z,188.93
2019-01-26T01:07:17.712Z,185.77
2019-01-26T01:09:47.856Z,192.37
2019-01-26T01:12:18.105Z,191.60
2019-01-26T01:14:49.784Z,184.80
2019-01-26T01:17:20.433Z,199.97
2019-01-26T01:19:50.492Z,204.50
2019-01-26T01:22:21.837Z,192.70
2019-01-26T01:24:51.957Z,191.83
2019-01-26T01:27:21.988Z,206.87
2019-01-26T01:29:52.071Z,219.67
2019-01-26T01:32:22.359Z,206.33
2019-01-26T01:34:52.610Z,221.17
2019-01-26T01:37:22.662Z,205.67
2019-01-26T01:39:52.703Z,232.87
2019-01-26T01:42:22.893Z,224.47
2019-01-26T01:44:52.953Z,211.17
2019-01-26T01:47:23.135Z,210.90
2019-01-26T01:49:56.563Z,213.93
2019-01-26T01:52:27.518Z,200.73
2019-01-26T01:55:00.420Z,209.53
2019-01-26T01:57:30.663Z,191.47
2019-01-26T02:00:02.406Z,206.47
2019-01-26T02:02:33.920Z,193.30
2019-01-26T02:05:04.770Z,203.40
2019-01-26T02:07:34.973Z,212.40
2019-01-26T02:10:08.127Z,209.90
2019-01-26T02:12:39.674Z,218.67
2019-01-26T02:15:11.328Z,206.53
2019-01-26T02:17:43.162Z,205.03
2019-01-26T02:20:32.484Z,197.50
2019-01-26T02:23:02.499Z,193.10
2019-01-26T02:25:32.896Z,208.33
2019-01-26T02:28:03.039Z,189.47
2019-01-26T02:30:34.320Z,206.33
2019-01-26T02:33:04.428Z,199.80
2019-01-26T02:35:34.557Z,196.43
2019-01-26T02:38:04.929Z,191.30
2019-01-26T02:40:34.968Z,190.53
2019-01-26T02:43:05.180Z,193.73
2019-01-26T02:45:35.134Z,202.17
2019-01-26T02:48:05.399Z,192.20
2019-01-26T02:50:35.444Z,191.80
2019-01-26T02:53:06.533Z,184.10
2019-01-26T02:55:36.631Z,210.33
2019-01-26T02:58:07.463Z,194.93
2019-01-26T03:00:37.513Z,179.67
2019-01-26T03:03:07.560Z,172.67
2019-01-26T03:05:37.717Z,157.57
2019-01-26T03:08:07.944Z,187.17
2019-01-26T03:10:39.200Z,166.93
2019-01-26T03:13:09.338Z,182.50
2019-01-26T03:15:41.480Z,164.03
2019-01-26T03:18:13.049Z,168.43
2019-01-26T03:20:43.064Z,175.97
2019-01-26T03:23:13.243Z,159.57
2019-01-26T03:25:43.522Z,153.60
2019-01-26T03:28:13.707Z,161.43
2019-01-26T03:30:44.857Z,156.43
2019-01-26T03:33:15.137Z,167.17
2019-01-26T03:41:46.024Z,171.50
2019-01-26T03:44:16.157Z,162.53
2019-01-26T03:46:48.632Z,156.63
2019-01-26T03:49:18.834Z,166.17
2019-01-26T03:51:49.202Z,156.17
2019-01-26T03:54:19.447Z,159.97
2019-01-26T03:56:49.876Z,159.97
2019-01-26T03:59:20.476Z,165.93
2019-01-26T04:01:50.676Z,146.53
2019-01-26T04:04:21.032Z,157.60
2019-01-26T04:06:51.172Z,143.93
2019-01-26T04:09:24.434Z,142.87
2019-01-26T04:11:54.601Z,143.30
2019-01-26T04:14:24.584Z,149.43
2019-01-26T04:16:55.043Z,141.63
2019-01-26T04:19:27.036Z,156.10
2019-01-26T04:21:58.515Z,152.40
2019-01-26T04:24:28.502Z,145.00
2019-01-26T04:26:58.529Z,159.17
2019-01-26T04:29:28.608Z,148.30
2019-01-26T04:31:59.652Z,136.33
2019-01-26T04:34:30.831Z,140.57
2019-01-26T04:37:02.349Z,136.93
2019-01-26T04:39:32.348Z,127.60
2019-01-26T04:42:02.403Z,138.83
2019-01-26T04:44:32.542Z,142.53
2019-01-26T04:47:02.681Z,136.10
2019-01-26T04:49:32.719Z,129.20
2019-01-26T04:52:03.301Z,129.37
2019-01-26T04:54:33.285Z,146.10
2019-01-26T04:57:03.316Z,135.60
2019-01-26T04:59:33.272Z,136.07
2019-01-26T05:02:03.608Z,135.57
2019-01-26T05:04:33.751Z,125.23
2019-01-26T05:07:04.895Z,141.37
2019-01-26T05:09:35.123Z,129.33
2019-01-26T05:12:05.535Z,134.83
2019-01-26T05:14:35.602Z,137.80
2019-01-26T05:17:05.789Z,141.03
2019-01-26T05:19:36.041Z,141.03
2019-01-26T05:22:07.471Z,141.17
2019-01-26T05:24:37.747Z,131.37
2019-01-26T05:27:08.529Z,128.47
2019-01-26T05:29:38.487Z,134.00
2019-01-26T05:32:08.401Z,127.47
2019-01-26T05:34:38.518Z,134.33
2019-01-26T05:37:08.599Z,131.57
2019-01-26T05:39:38.796Z,133.10
2019-01-26T05:42:08.758Z,128.27
2019-01-26T05:44:38.864Z,129.47
2019-01-26T05:47:10.660Z,126.87
2019-01-26T05:49:40.788Z,130.73
2019-01-26T05:52:10.884Z,123.97
2019-01-26T05:54:42.029Z,109.90
2019-01-26T05:57:12.487Z,129.33
2019-01-26T05:59:42.413Z,119.77
2019-01-26T06:02:12.607Z,122.50
2019-01-26T06:04:42.605Z,133.80
2019-01-26T06:07:12.772Z,123.60
2019-01-26T06:09:42.726Z,121.10
2019-01-26T06:12:12.816Z,117.10
2019-01-26T06:14:42.875Z,113.80
2019-01-26T06:17:13.125Z,109.53
2019-01-26T06:19:43.537Z,109.63
2019-01-26T06:22:13.667Z,113.57
2019-01-26T06:24:43.828Z,119.90
2019-01-26T06:27:13.957Z,103.50
2019-01-26T06:29:44.171Z,103.63
2019-01-26T06:32:14.359Z,101.10
2019-01-26T06:34:45.886Z,106.47
2019-01-26T06:37:16.750Z,104.23
2019-01-26T06:39:46.739Z,92.97
2019-01-26T06:42:16.873Z,101.93
2019-01-26T06:44:51.230Z,98.87
2019-01-26T06:47:22.175Z,97.03
2019-01-26T06:49:52.321Z,87.27
2019-01-26T06:52:22.437Z,92.67
2019-01-26T06:54:52.598Z,100.07
2019-01-26T06:57:22.653Z,94.30
2019-01-26T06:59:54.357Z,97.00
2019-01-26T07:02:24.368Z,97.17
2019-01-26T07:04:57.426Z,98.00
2019-01-26T07:07:27.503Z,93.17
2019-01-26T07:09:57.556Z,94.73
2019-01-26T07:12:27.910Z,103.67
2019-01-26T07:14:57.945Z,96.23
2019-01-26T07:17:28.067Z,94.73
2019-01-26T07:19:59.479Z,91.70
2019-01-26T07:22:29.798Z,84.27
2019-01-26T07:24:59.873Z,86.10
2019-01-26T07:27:30.120Z,87.83
2019-01-26T07:30:00.229Z,75.53
2019-01-26T07:32:30.656Z,80.23
2019-01-26T07:35:00.694Z,80.30
2019-01-26T07:37:30.863Z,75.90
2019-01-26T07:40:03.909Z,73.37
2019-01-26T07:42:33.904Z,79.47
2019-01-26T07:45:04.590Z,77.50
2019-01-26T07:47:34.749Z,78.73
2019-01-26T07:50:07.433Z,74.10
2019-01-26T07:52:37.558Z,73.87
2019-01-26T07:55:10.192Z,76.03
2019-01-26T07:57:40.544Z,72.97
2019-01-26T08:00:27.961Z,76.43
2019-01-26T08:02:58.025Z,73.80
2019-01-26T08:05:29.509Z,80.47
2019-01-26T08:07:59.588Z,74.40
2019-01-26T08:10:29.741Z,72.97
2019-01-26T08:12:59.974Z,73.57
2019-01-26T08:15:32.721Z,73.23
2019-01-26T08:18:02.952Z,71.23
2019-01-26T08:20:33.833Z,73.90
2019-01-26T08:23:03.860Z,73.17
2019-01-26T08:25:33.956Z,71.67
2019-01-26T08:28:04.382Z,70.63
2019-01-26T08:30:34.560Z,80.93
2019-01-26T08:33:06.364Z,71.37
2019-01-26T08:35:36.486Z,73.07
2019-01-26T08:38:07.245Z,76.70
2019-01-26T08:40:37.364Z,91.53
2019-01-26T08:43:07.598Z,88.17
2019-01-26T08:45:37.707Z,94.40
2019-01-26T08:48:08.002Z,84.53
2019-01-26T08:50:37.948Z,88.07
2019-01-26T08:53:08.307Z,87.77
2019-01-26T08:55:38.288Z,88.17
2019-01-26T08:58:08.388Z,87.37
2019-01-26T09:00:39.948Z,86.67
2019-01-26T09:03:11.691Z,93.50
2019-01-26T09:05:52.433Z,90.17
2019-01-26T09:08:22.490Z,88.50
2019-01-26T09:10:52.560Z,86.67
2019-01-26T09:13:23.004Z,91.10
2019-01-26T09:15:53.426Z,99.73
2019-01-26T09:18:23.551Z,88.10
2019-01-26T09:20:53.787Z,82.70
2019-01-26T09:23:23.983Z,88.57
2019-01-26T09:25:54.030Z,86.00
2019-01-26T09:28:24.395Z,77.20
2019-01-26T09:30:54.645Z,87.83
2019-01-26T09:33:24.783Z,86.33
2019-01-26T09:35:54.746Z,86.53
2019-01-26T09:38:24.870Z,87.93
2019-01-26T09:40:55.063Z,85.80
2019-01-26T09:43:25.286Z,76.77
2019-01-26T09:45:55.308Z,84.10
2019-01-26T09:48:25.426Z,71.93
2019-01-26T09:50:57.029Z,82.23
2019-01-26T09:53:27.145Z,78.30
2019-01-26T09:55:58.552Z,82.03
2019-01-26T09:58:28.948Z,79.73
2019-01-26T10:00:59.035Z,80.80
2019-01-26T10:03:28.988Z,79.20
2019-01-26T10:05:59.109Z,77.97
2019-01-26T10:08:29.202Z,71.60
2019-01-26T10:10:59.724Z,79.73
2019-01-26T10:13:30.507Z,76.83
2019-01-26T10:16:00.551Z,78.00
2019-01-26T10:18:30.773Z,79.40
2019-01-26T10:21:01.550Z,81.53
2019-01-26T10:23:31.750Z,86.30
2019-01-26T10:26:02.034Z,100.10
2019-01-26T10:28:32.170Z,74.27
2019-01-26T10:31:02.393Z,77.63
2019-01-26T10:33:32.520Z,75.97
2019-01-26T10:36:04.347Z,86.17
2019-01-26T10:38:35.918Z,85.50
2019-01-26T10:41:08.816Z,81.20
2019-01-26T10:43:43.630Z,72.30
2019-01-26T10:46:15.336Z,81.37
2019-01-26T10:48:45.324Z,82.53
2019-01-26T10:51:16.106Z,86.77
2019-01-26T10:53:46.245Z,81.97
2019-01-26T10:56:16.590Z,82.03
2019-01-26T10:58:46.558Z,88.73
2019-01-26T11:01:16.637Z,82.13
2019-01-26T11:03:46.661Z,81.67
2019-01-26T11:06:16.853Z,87.93
2019-01-26T11:08:46.793Z,91.90
2019-01-26T11:11:19.243Z,84.73
2019-01-26T11:13:50.450Z,83.77
2019-01-26T11:16:20.670Z,93.70
2019-01-26T11:18:52.286Z,88.97
2019-01-26T11:21:22.564Z,81.30
2019-01-26T11:23:52.505Z,86.00
2019-01-26T11:26:23.077Z,83.17
2019-01-26T11:28:53.265Z,86.43
2019-01-26T11:31:23.847Z,90.57
2019-01-26T11:33:53.957Z,81.67
2019-01-26T11:36:24.098Z,88.83
2019-01-26T11:38:54.222Z,92.10
2019-01-26T11:41:24.351Z,90.33
2019-01-26T11:43:57.101Z,95.80
2019-01-26T11:46:27.512Z,98.90
2019-01-26T11:48:57.916Z,89.70
2019-01-26T11:51:32.756Z,102.00
2019-01-26T11:54:03.153Z,103.83
2019-01-26T11:56:44.562Z,102.90
2019-01-26T11:59:15.126Z,101.57
2019-01-26T12:01:47.088Z,103.33
2019-01-26T12:04:30.864Z,102.80
2019-01-26T12:07:02.509Z,105.20
2019-01-26T12:09:32.626Z,109.97
2019-01-26T12:12:02.797Z,108.73
2019-01-26T12:14:32.959Z,110.77
2019-01-26T12:17:03.283Z,107.17
2019-01-26T12:19:34.893Z,106.77
2019-01-26T12:22:05.495Z,108.00
2019-01-26T12:24:37.911Z,104.37
2019-01-26T12:27:09.128Z,101.50
2019-01-26T12:29:39.705Z,109.13
2019-01-26T12:32:09.843Z,111.57
2019-01-26T12:34:40.207Z,107.07
2019-01-26T12:37:10.473Z,117.27
2019-01-26T12:39:40.503Z,107.43
2019-01-26T12:42:10.690Z,112.53
2019-01-26T12:44:42.379Z,106.47
2019-01-26T12:47:16.913Z,110.33
2019-01-26T12:49:45.590Z,108.63
2019-01-26T12:52:16.003Z,114.60
2019-01-26T12:54:46.289Z,108.97
2019-01-26T12:57:18.103Z,102.60
2019-01-26T12:59:50.389Z,97.07
2019-01-26T13:02:20.352Z,109.77
2019-01-26T13:04:50.671Z,109.60
2019-01-26T13:07:20.951Z,110.30
2019-01-26T13:09:52.244Z,103.93
2019-01-26T13:12:22.452Z,106.43
2019-01-26T13:14:53.819Z,105.80
2019-01-26T13:17:26.910Z,105.07
2019-01-26T13:19:57.584Z,109.10
2019-01-26T13:22:29.869Z,107.73
2019-01-26T13:25:03.220Z,106.97
2019-01-26T13:27:34.771Z,115.20
2019-01-26T13:30:07.625Z,111.73
2019-01-26T13:32:38.027Z,114.40
2019-01-26T13:35:12.156Z,113.83
2019-01-26T13:37:42.423Z,122.87
2019-01-26T13:40:21.145Z,115.53
2019-01-26T13:42:51.135Z,119.00
2019-01-26T13:45:21.512Z,114.27
2019-01-26T13:47:54.473Z,116.70
2019-01-26T13:50:28.245Z,123.87
2019-01-26T13:52:59.769Z,122.23
2019-01-26T13:55:30.229Z,118.30
2019-01-26T13:58:00.509Z,121.67
2019-01-26T14:00:38.655Z,132.23
2019-01-26T14:03:14.810Z,126.17
2019-01-26T14:05:45.165Z,124.90
2019-01-26T14:08:15.643Z,126.27
2019-01-26T14:10:46.063Z,127.97
2019-01-26T14:13:16.424Z,118.83
2019-01-26T14:15:46.914Z,133.33
2019-01-26T14:18:17.692Z,134.60
2019-01-26T14:20:49.033Z,126.73
2019-01-26T14:23:21.319Z,135.70
2019-01-26T14:25:51.671Z,126.10
2019-01-26T14:28:23.518Z,125.63
2019-01-26T14:30:55.231Z,131.67
2019-01-26T14:33:25.524Z,126.40
2019-01-26T14:35:57.385Z,127.73
2019-01-26T14:38:28.485Z,127.67
2019-01-26T14:41:01.067Z,131.83
2019-01-26T14:43:31.607Z,130.97
2019-01-26T14:46:01.878Z,128.43
2019-01-26T14:48:39.569Z,130.80
2019-01-26T14:51:12.076Z,137.13
2019-01-26T14:53:47.604Z,128.10
2019-01-26T14:56:16.153Z,129.57
2019-01-26T14:58:48.377Z,130.37
2019-01-26T15:01:18.768Z,123.40
2019-01-26T15:03:49.536Z,121.90
2019-01-26T15:06:19.881Z,136.50
2019-01-26T15:08:50.112Z,134.67
2019-01-26T15:11:20.538Z,136.70
2019-01-26T15:13:56.906Z,141.17
2019-01-26T15:16:28.696Z,137.03
2019-01-26T15:18:58.987Z,140.83
2019-01-26T15:21:30.897Z,142.00
2019-01-26T15:24:01.314Z,135.77
2019-01-26T15:26:35.696Z,146.33
2019-01-26T15:29:07.374Z,136.27
2019-01-26T15:31:37.812Z,158.93
2019-01-26T15:34:10.637Z,148.43
2019-01-26T15:36:41.309Z,164.27
2019-01-26T15:39:13.099Z,143.33
2019-01-26T15:41:43.541Z,156.30
2019-01-26T15:44:13.938Z,153.63
2019-01-26T15:46:45.218Z,161.97
2019-01-26T15:49:15.647Z,159.27
2019-01-26T15:51:46.109Z,171.90
2019-01-26T15:54:16.872Z,162.83
2019-01-26T15:56:47.230Z,159.23
2019-01-26T15:59:17.426Z,158.40
2019-01-26T16:01:49.541Z,147.97
2019-01-26T16:04:22.493Z,158.43
2019-01-26T16:06:54.743Z,164.37
2019-01-26T16:09:25.069Z,158.83
2019-01-26T16:11:56.303Z,150.50
2019-01-26T16:14:28.148Z,158.07
2019-01-26T16:16:59.108Z,148.23
2019-01-26T16:19:50.052Z,144.90
2019-01-26T16:22:20.791Z,137.27
2019-01-26T16:24:51.130Z,139.77
2019-01-26T16:27:21.533Z,139.63
2019-01-26T16:29:52.313Z,145.73
2019-01-26T16:32:22.763Z,139.57
2019-01-26T16:34:53.551Z,123.70
2019-01-26T16:37:49.966Z,131.80
2019-01-26T16:40:26.374Z,128.07
2019-01-26T16:42:58.805Z,122.87
2019-01-26T16:45:35.102Z,117.80
2019-01-26T16:48:08.293Z,126.70
2019-01-26T16:50:40.174Z,132.00
2019-01-26T16:53:13.581Z,123.23
2019-01-26T16:55:46.674Z,126.53
2019-01-26T16:58:21.307Z,124.10
2019-01-26T17:00:51.885Z,123.23
2019-01-26T17:03:24.541Z,124.53
2019-01-26T17:05:57.556Z,122.43
2019-01-26T17:08:29.600Z,114.80
2019-01-26T17:11:01.426Z,115.83
2019-01-26T17:13:32.714Z,125.20
2019-01-26T17:16:03.630Z,118.13
2019-01-26T17:18:36.311Z,117.27
2019-01-26T17:21:11.842Z,112.40
2019-01-26T17:23:47.413Z,102.07
2019-01-26T17:26:18.004Z,100.90
2019-01-26T17:28:49.619Z,103.50
2019-01-26T17:31:20.331Z,104.23
2019-01-26T17:33:52.174Z,98.33
2019-01-26T17:36:24.771Z,103.63
2019-01-26T17:38:55.933Z,103.23
2019-01-26T17:41:29.437Z,109.27
2019-01-26T17:44:02.399Z,102.07
2019-01-26T17:46:35.547Z,109.77
2019-01-26T17:49:10.476Z,101.00
2019-01-26T17:51:42.240Z,94.73
2019-01-26T17:54:14.615Z,93.33
2019-01-26T17:56:47.124Z,101.33
2019-01-26T17:59:17.964Z,101.43
2019-01-26T18:01:48.778Z,98.93
2019-01-26T18:04:19.679Z,99.43
2019-01-26T18:06:50.504Z,98.70
2019-01-26T18:09:21.810Z,100.60
2019-01-26T18:11:52.348Z,101.80
2019-01-26T18:14:24.688Z,101.77
2019-01-26T18:16:56.488Z,99.20
2019-01-26T18:19:28.339Z,97.40
2019-01-26T18:21:58.794Z,100.77
2019-01-26T18:24:48.912Z,101.47
2019-01-26T18:27:19.410Z,105.97
2019-01-26T18:29:50.070Z,105.37
2019-01-26T18:32:20.987Z,107.37
2019-01-26T18:34:53.686Z,106.70
2019-01-26T18:37:25.202Z,108.03
2019-01-26T18:40:21.212Z,106.27
2019-01-26T18:42:53.144Z,105.57
2019-01-26T18:45:26.723Z,103.67
2019-01-26T18:47:57.199Z,112.43
2019-01-26T18:50:45.107Z,121.50
2019-01-26T18:53:18.728Z,137.70
2019-01-26T18:55:49.460Z,141.57
2019-01-26T18:58:20.535Z,153.57
2019-01-26T19:00:52.295Z,155.83
2019-01-26T19:03:26.158Z,155.73
2019-01-26T19:06:00.350Z,150.40
2019-01-26T19:08:31.716Z,156.70
2019-01-26T19:11:02.848Z,151.10
2019-01-26T19:13:34.681Z,150.63
2019-01-26T19:16:06.453Z,144.50
2019-01-26T19:18:37.491Z,162.00
2019-01-26T19:21:09.300Z,157.70
2019-01-26T19:23:41.051Z,164.10
2019-01-26T19:26:11.981Z,157.83
2019-01-26T19:28:43.815Z,161.67
2019-01-26T19:31:14.990Z,159.10
2019-01-26T19:33:47.677Z,174.43
2019-01-26T19:36:20.401Z,165.50
2019-01-26T19:38:51.803Z,177.17
2019-01-26T19:41:22.490Z,171.23
2019-01-26T19:43:54.193Z,162.77
2019-01-26T19:46:26.659Z,170.03
2019-01-26T19:48:59.246Z,171.87
2019-01-26T19:51:32.446Z,174.40
2019-01-26T19:54:07.626Z,176.57
2019-01-26T19:56:40.778Z,171.57
2019-01-26T19:59:12.479Z,171.73
2019-01-26T20:01:43.364Z,190.37
2019-01-26T20:04:15.127Z,177.93
2019-01-26T20:06:46.974Z,178.83
2019-01-26T20:09:18.831Z,188.10
2019-01-26T20:11:51.926Z,178.27
2019-01-26T20:14:22.954Z,182.57
2019-01-26T20:16:56.697Z,185.87
2019-01-26T20:19:31.319Z,189.40
2019-01-26T20:22:02.882Z,178.10
2019-01-26T20:24:33.245Z,178.83
2019-01-26T20:27:03.934Z,186.50
2019-01-26T20:29:35.779Z,196.00
2019-01-26T20:32:06.652Z,187.73
2019-01-26T20:34:37.123Z,183.53
2019-01-26T20:37:08.206Z,179.43
2019-01-26T20:39:40.765Z,190.67
2019-01-26T20:42:11.366Z,189.73
2019-01-26T20:44:42.528Z,183.13
2019-01-26T20:47:13.276Z,184.23
2019-01-26T20:49:43.543Z,174.70
2019-01-26T20:52:14.001Z,185.70
2019-01-26T20:54:44.418Z,158.37
2019-01-26T20:57:14.931Z,163.67
2019-01-26T20:59:45.397Z,155.30
2019-01-26T21:02:17.966Z,156.03
2019-01-26T21:04:48.493Z,159.43
2019-01-26T21:07:20.110Z,158.33
2019-01-26T21:09:50.625Z,149.47
2019-01-26T21:12:21.440Z,159.90
2019-01-26T21:14:52.314Z,154.90
2019-01-26T21:17:23.536Z,159.57
2019-01-26T21:19:54.069Z,158.07
2019-01-26T21:22:24.751Z,157.87
2019-01-26T21:24:56.676Z,144.43
2019-01-26T21:27:28.445Z,157.87
2019-01-26T21:29:58.935Z,145.20
2019-01-26T21:32:29.661Z,145.00
2019-01-26T21:34:59.885Z,156.27
2019-01-26T21:37:30.242Z,152.70
2019-01-26T21:40:00.914Z,155.97
2019-01-26T21:42:33.061Z,147.33
2019-01-26T21:45:07.402Z,151.77
2019-01-26T21:47:37.787Z,145.20
2019-01-26T21:50:16.965Z,154.97
2019-01-26T21:52:47.421Z,153.83
2019-01-26T21:55:17.883Z,147.30
2019-01-26T21:57:48.054Z,148.90
2019-01-26T22:00:39.090Z,153.53
2019-01-26T22:03:10.846Z,151.03
2019-01-26T22:05:41.208Z,148.90
2019-01-26T22:08:11.493Z,156.93
2019-01-26T22:10:42.343Z,145.00
2019-01-26T22:13:12.788Z,145.37
2019-01-26T22:15:42.852Z,150.10
2019-01-26T22:18:13.027Z,145.50
2019-01-26T22:20:43.290Z,154.93
2019-01-26T22:23:13.808Z,151.40
2019-01-26T22:25:44.365Z,149.47
2019-01-26T22:28:14.852Z,146.50
2019-01-26T22:30:45.159Z,151.47
2019-01-26T22:33:15.270Z,151.03
2019-01-26T22:35:45.383Z,145.27
2019-01-26T22:38:15.709Z,142.27
2019-01-26T22:40:47.110Z,143.90
2019-01-26T22:43:38.429Z,148.07
2019-01-26T22:46:08.670Z,154.23
2019-01-26T22:48:38.961Z,152.43
2019-01-26T22:51:09.334Z,155.17
2019-01-26T22:53:39.565Z,156.47
2019-01-26T22:56:09.855Z,161.87
2019-01-26T22:58:40.224Z,154.13
2019-01-26T23:01:13.343Z,151.77
2019-01-26T23:03:53.247Z,155.40
2019-01-26T23:06:35.324Z,143.90
2019-01-26T23:09:15.298Z,148.70
2019-01-26T23:11:58.277Z,146.87
2019-01-26T23:14:37.906Z,152.03
2019-01-26T23:17:22.972Z,153.13
2019-01-26T23:19:58.941Z,147.97
2019-01-26T23:22:48.570Z,159.07
2019-01-26T23:25:30.535Z,158.60
2019-01-26T23:28:12.749Z,159.27
2019-01-26T23:31:08.519Z,156.23
2019-01-26T23:33:40.739Z,165.43
2019-01-26T23:36:12.283Z,156.83
2019-01-26T23:38:43.192Z,156.17
2019-01-26T23:41:13.980Z,160.40
2019-01-26T23:43:44.818Z,156.83
2019-01-26T23:46:15.678Z,149.93
2019-01-26T23:48:46.265Z,163.73
2019-01-26T23:51:18.215Z,151.33
2019-01-26T23:53:48.729Z,164.17
2019-01-26T23:56:19.698Z,173.13
2019-01-26T23:58:50.379Z,163.60
